Terminal Aerodrome Forecast
Issued by NWS

Home | Current Version | Previous Version | Text Only | Print | Product List | Glossary Off
Versions: 1 2 3 4 5 6 7 8 9 10 11 12 13 14 15 16 17 18

334
FTUS43 KMPX 030520
TAFRNH
TAF
KRNH 030520Z 0306/0406 01020G30KT 1 1/2SM -SN BLSN OVC012
     FM031200 34018G28KT 3SM BLSN OVC015
     FM031800 32016G24KT 6SM BLSN BKN020
     FM032100 31014G22KT P6SM SCT025
     FM040000 28005KT P6SM BKN250=

USA.gov is the U.S. government's official web portal to all federal, state and local government web resources and services.